createdAt,value
2023-03-21T00:04:51.278Z,14.32
2023-03-21T00:10:04.799Z,16.40
2023-03-21T00:15:10.384Z,16.90
2023-03-21T00:20:16.309Z,13.30
2023-03-21T00:25:20.042Z,13.45
2023-03-21T00:30:24.110Z,16.65
2023-03-21T00:35:57.917Z,17.58
2023-03-21T00:40:52.760Z,14.63
2023-03-21T00:45:56.286Z,14.35
2023-03-21T00:51:01.023Z,14.43
2023-03-21T00:56:04.485Z,12.40
2023-03-21T01:01:09.745Z,14.30
2023-03-21T01:06:19.522Z,13.45
2023-03-21T01:11:26.586Z,13.85
2023-03-21T01:16:30.021Z,16.63
2023-03-21T01:21:34.927Z,15.20
2023-03-21T01:26:38.871Z,17.40
2023-03-21T01:31:42.220Z,14.73
2023-03-21T01:36:46.979Z,19.75
2023-03-21T01:41:50.469Z,14.65
2023-03-21T01:47:12.158Z,19.80
2023-03-21T01:52:35.767Z,13.13
2023-03-21T01:57:55.186Z,16.63
2023-03-21T02:03:17.058Z,18.35
2023-03-21T02:08:36.823Z,20.98
2023-03-21T02:13:41.998Z,22.35
2023-03-21T02:18:55.685Z,15.93
2023-03-21T02:24:38.007Z,16.48
2023-03-21T02:30:17.390Z,15.25
2023-03-21T02:35:55.411Z,16.70
2023-03-21T02:41:17.963Z,14.70
2023-03-21T02:46:33.513Z,17.27
2023-03-21T02:51:45.722Z,15.38
2023-03-21T02:56:52.945Z,14.88
2023-03-21T03:01:57.627Z,16.55
2023-03-21T03:07:20.804Z,20.50
2023-03-21T03:12:35.471Z,23.02
2023-03-21T03:17:50.765Z,17.48
2023-03-21T03:23:01.965Z,19.55
2023-03-21T03:28:08.977Z,24.23
2023-03-21T03:33:17.119Z,19.15
2023-03-21T03:38:23.356Z,19.73
2023-03-21T03:43:35.385Z,16.95
2023-03-21T03:48:46.887Z,22.15
2023-03-21T03:53:55.132Z,21.58
2023-03-21T03:59:00.026Z,20.58
2023-03-21T04:04:12.730Z,20.40
2023-03-21T04:09:21.954Z,23.40
2023-03-21T04:14:42.038Z,20.27
2023-03-21T04:19:47.684Z,21.90
2023-03-21T04:24:51.051Z,20.58
2023-03-21T04:29:56.478Z,18.88
2023-03-21T04:34:59.790Z,24.35
2023-03-21T04:40:07.061Z,23.05
2023-03-21T04:45:12.913Z,25.00
2023-03-21T04:50:16.964Z,23.08
2023-03-21T04:55:21.777Z,21.02
2023-03-21T05:00:27.328Z,23.50
2023-03-21T05:05:31.836Z,20.73
2023-03-21T05:10:35.760Z,26.90
2023-03-21T05:15:40.486Z,23.42
2023-03-21T05:20:44.020Z,22.27
2023-03-21T05:25:47.916Z,23.42
2023-03-21T05:30:52.700Z,27.90
2023-03-21T05:35:56.225Z,20.20
2023-03-21T05:40:59.842Z,21.13
2023-03-21T05:46:04.756Z,16.70
2023-03-21T05:51:08.515Z,23.55
2023-03-21T05:56:12.160Z,20.30
2023-03-21T06:01:17.036Z,19.77
2023-03-21T06:06:20.378Z,21.70
2023-03-21T06:11:27.547Z,20.10
2023-03-21T06:16:32.399Z,21.58
2023-03-21T06:21:36.266Z,19.45
2023-03-21T06:26:39.860Z,16.63
2023-03-21T06:31:44.679Z,20.88
2023-03-21T06:36:48.171Z,20.55
2023-03-21T06:41:51.833Z,20.23
2023-03-21T06:46:56.756Z,16.30
2023-03-21T06:52:00.379Z,17.00
2023-03-21T06:57:03.908Z,20.27
2023-03-21T07:02:08.805Z,20.90
2023-03-21T07:07:12.564Z,16.42
2023-03-21T07:12:16.016Z,17.58
2023-03-21T07:17:20.926Z,16.75
2023-03-21T07:22:24.349Z,20.83
2023-03-21T07:27:28.127Z,14.95
2023-03-21T07:32:35.484Z,19.00
2023-03-21T07:37:39.499Z,14.55
2023-03-21T07:42:43.889Z,13.52
2023-03-21T07:47:49.039Z,17.77
2023-03-21T07:52:57.010Z,13.07
2023-03-21T07:58:00.515Z,17.92
2023-03-21T08:03:05.436Z,15.75
2023-03-21T08:08:08.994Z,13.48
2023-03-21T08:13:12.577Z,14.32
2023-03-21T08:18:17.482Z,11.00
2023-03-21T08:23:23.799Z,16.17
2023-03-21T08:28:27.359Z,11.52
2023-03-21T08:33:32.394Z,10.77
2023-03-21T08:38:36.152Z,11.23
2023-03-21T08:43:39.773Z,12.60
2023-03-21T08:48:44.767Z,17.17
2023-03-21T08:53:51.068Z,17.27
2023-03-21T08:58:54.407Z,15.00
2023-03-21T09:03:59.229Z,15.25
2023-03-21T09:09:02.519Z,14.80
2023-03-21T09:14:06.405Z,13.73
2023-03-21T09:19:11.579Z,11.52
2023-03-21T09:24:15.684Z,10.68
2023-03-21T09:29:21.525Z,10.15
2023-03-21T09:34:26.720Z,16.60
2023-03-21T09:39:30.549Z,16.55
2023-03-21T09:44:45.819Z,13.98
2023-03-21T09:50:04.511Z,11.25
2023-03-21T09:55:20.223Z,14.10
2023-03-21T10:00:29.916Z,18.73
2023-03-21T10:05:40.665Z,10.80
2023-03-21T10:10:49.287Z,14.30
2023-03-21T10:15:58.202Z,12.38
2023-03-21T10:21:06.320Z,7.95
2023-03-21T10:26:11.505Z,10.20
2023-03-21T10:31:19.267Z,8.90
2023-03-21T10:36:27.301Z,8.43
2023-03-21T10:41:30.733Z,11.70
2023-03-21T10:46:36.310Z,6.95
2023-03-21T10:51:41.747Z,9.77
2023-03-21T10:56:49.589Z,10.32
2023-03-21T11:01:56.808Z,7.55
2023-03-21T11:07:07.553Z,8.25
2023-03-21T11:12:13.202Z,6.18
2023-03-21T11:17:25.521Z,8.35
2023-03-21T11:22:38.658Z,6.22
2023-03-21T11:27:49.916Z,6.82
2023-03-21T11:32:56.581Z,8.60
2023-03-21T11:38:01.387Z,7.07
2023-03-21T11:43:25.916Z,9.85
2023-03-21T11:48:30.809Z,7.18
2023-03-21T11:53:42.742Z,6.97
2023-03-21T11:59:02.675Z,9.77
2023-03-21T12:04:28.497Z,6.85
2023-03-21T12:09:42.961Z,10.90
2023-03-21T12:15:00.671Z,6.00
2023-03-21T12:20:27.797Z,5.85
2023-03-21T12:25:37.127Z,6.25
2023-03-21T12:30:52.929Z,9.80
2023-03-21T12:36:13.175Z,4.68
2023-03-21T12:41:27.566Z,7.70
2023-03-21T12:46:36.613Z,8.05
2023-03-21T12:51:45.138Z,8.70
2023-03-21T12:56:55.741Z,7.20
2023-03-21T13:02:04.251Z,7.97
2023-03-21T13:07:11.915Z,7.75
2023-03-21T13:12:27.517Z,7.45
2023-03-21T13:17:37.353Z,8.48
2023-03-21T13:22:42.622Z,8.75
2023-03-21T13:27:53.840Z,7.57
2023-03-21T13:33:07.187Z,7.57
2023-03-21T13:38:17.890Z,5.53
2023-03-21T13:43:45.289Z,6.07
2023-03-21T13:49:01.161Z,4.22
2023-03-21T13:54:15.763Z,3.92
2023-03-21T13:59:36.707Z,5.78
2023-03-21T14:04:53.868Z,6.35
2023-03-21T14:10:06.428Z,6.90
2023-03-21T14:15:20.534Z,5.53
2023-03-21T14:20:27.176Z,7.40
2023-03-21T14:25:44.356Z,8.73
2023-03-21T14:30:53.709Z,8.50
2023-03-21T14:36:00.103Z,8.68
2023-03-21T14:41:03.933Z,10.13
2023-03-21T14:46:14.351Z,7.43
2023-03-21T14:51:17.875Z,7.97
2023-03-21T14:56:25.356Z,8.07
2023-03-21T15:01:34.935Z,7.53
2023-03-21T15:06:54.526Z,9.10
2023-03-21T15:11:59.813Z,13.55
2023-03-21T15:17:07.636Z,8.25
2023-03-21T15:22:17.981Z,11.35
2023-03-21T15:27:25.985Z,12.93
2023-03-21T15:32:30.922Z,16.80
2023-03-21T15:37:36.702Z,10.70
2023-03-21T15:42:41.290Z,12.50
2023-03-21T15:47:53.509Z,15.38
2023-03-21T15:53:00.260Z,13.27
2023-03-21T15:58:07.843Z,16.65
2023-03-21T16:03:19.341Z,11.10
2023-03-21T16:08:27.991Z,9.80
2023-03-21T16:13:31.495Z,11.35
2023-03-21T16:18:36.568Z,14.15
2023-03-21T16:23:39.960Z,14.93
2023-03-21T16:28:43.496Z,10.48
2023-03-21T16:33:49.007Z,14.45
2023-03-21T16:38:53.967Z,14.75
2023-03-21T16:43:57.490Z,13.10
2023-03-21T16:49:03.716Z,14.60
2023-03-21T16:54:07.236Z,15.23
2023-03-21T16:59:14.486Z,10.90
2023-03-21T17:04:20.382Z,11.77
2023-03-21T17:09:26.399Z,10.52
2023-03-21T17:14:29.943Z,11.60
2023-03-21T17:19:34.879Z,10.30
2023-03-21T17:24:38.368Z,10.15
2023-03-21T17:29:41.757Z,11.07
2023-03-21T17:34:46.726Z,13.05
2023-03-21T17:39:50.950Z,13.10
2023-03-21T17:44:54.519Z,12.73
2023-03-21T17:49:59.418Z,9.43
2023-03-21T17:55:03.414Z,12.18
2023-03-21T18:00:12.788Z,12.65
2023-03-21T18:05:18.095Z,13.85
2023-03-21T18:10:23.591Z,13.13
2023-03-21T18:15:30.515Z,12.52
2023-03-21T18:20:51.284Z,12.10
2023-03-21T18:25:56.048Z,10.18
2023-03-21T18:31:19.400Z,12.18
2023-03-21T18:41:32.244Z,14.25
2023-03-21T18:46:36.968Z,16.55
2023-03-21T18:51:42.459Z,15.15
2023-03-21T19:02:16.102Z,13.98
2023-03-21T19:07:21.729Z,12.73
2023-03-21T19:12:25.113Z,12.70
2023-03-21T19:22:53.816Z,15.90
2023-03-21T19:27:57.332Z,13.82
2023-03-21T19:33:00.763Z,16.35
2023-03-21T19:38:05.648Z,16.02
2023-03-21T19:43:31.286Z,15.95
2023-03-21T19:48:33.191Z,18.98
2023-03-21T19:53:40.252Z,24.13
2023-03-21T19:58:43.565Z,22.15
2023-03-21T20:03:47.413Z,20.65
2023-03-21T20:14:17.601Z,21.65
2023-03-21T20:19:22.976Z,21.00
2023-03-21T20:24:28.414Z,22.95
2023-03-21T20:30:33.069Z,21.45
2023-03-21T20:35:06.851Z,22.35
2023-03-21T20:40:18.973Z,17.40
2023-03-21T20:45:23.052Z,19.67
2023-03-21T20:50:28.027Z,16.73
2023-03-21T20:55:33.508Z,19.08
2023-03-21T21:00:38.049Z,16.42
2023-03-21T21:05:45.135Z,18.52
2023-03-21T21:11:36.190Z,19.13
2023-03-21T21:16:13.932Z,18.13
2023-03-21T21:21:17.827Z,20.58
2023-03-21T21:26:22.852Z,17.85
2023-03-21T21:31:27.243Z,17.58
2023-03-21T21:36:30.601Z,15.38
2023-03-21T21:41:35.562Z,18.42
2023-03-21T21:46:39.136Z,18.80
2023-03-21T21:51:42.590Z,19.15
2023-03-21T21:56:48.846Z,17.17
2023-03-21T22:01:52.423Z,17.65
2023-03-21T22:06:56.178Z,17.80
2023-03-21T22:12:01.128Z,18.17
2023-03-21T22:17:05.352Z,17.45
2023-03-21T22:22:08.976Z,17.67
2023-03-21T22:27:13.952Z,15.45
2023-03-21T22:32:17.757Z,14.73
2023-03-21T22:37:21.238Z,16.13
2023-03-21T22:42:26.324Z,14.65
2023-03-21T22:47:30.270Z,17.30
2023-03-21T22:52:33.806Z,13.88
2023-03-21T22:57:38.476Z,13.73
2023-03-21T23:02:41.994Z,14.07
2023-03-21T23:07:45.462Z,18.65
2023-03-21T23:12:51.668Z,14.68
2023-03-21T23:17:54.984Z,13.85
2023-03-21T23:22:58.708Z,16.58
2023-03-21T23:28:03.407Z,15.02
2023-03-21T23:33:06.796Z,14.55
2023-03-21T23:38:10.422Z,14.27
2023-03-21T23:43:15.325Z,14.02
2023-03-21T23:48:18.785Z,17.58
2023-03-21T23:53:22.752Z,15.60
2023-03-21T23:58:30.035Z,14.65
